Time;durP1;ratioP1;P1;durP2;ratioP2;P2;SDS_P1;SDS_P2;PMS_P1;PMS_P2;Temp;Humidity;BMP_temperature;BMP_pressure;BME280_temperature;BME280_humidity;BME280_pressure;Samples;Min_cycle;Max_cycle;Signal;HPM_P1;HPM_P2
2022/10/16 00:02:22;;;;;;;2.85;1.40;;;;;;;13.22;100.00;95731.00;5007528;28;24448;-73
2022/10/16 00:04:49;;;;;;;2.47;1.50;;;;;;;13.19;100.00;95733.00;5008068;28;24444;-73
2022/10/16 00:07:15;;;;;;;3.20;1.50;;;;;;;13.08;100.00;95734.63;5007277;28;24794;-73
2022/10/16 00:09:42;;;;;;;1.83;1.30;;;;;;;13.09;100.00;95735.47;5004830;28;24451;-72
2022/10/16 00:12:08;;;;;;;4.38;1.50;;;;;;;13.12;100.00;95737.00;5004421;28;24440;-72
2022/10/16 00:14:35;;;;;;;2.10;1.30;;;;;;;13.20;100.00;95738.09;5003425;28;24436;-72
2022/10/16 00:17:03;;;;;;;3.65;1.83;;;;;;;13.16;100.00;95735.81;5005931;28;24802;-72
2022/10/16 00:19:29;;;;;;;2.45;1.23;;;;;;;13.06;100.00;95740.88;5006127;28;24443;-73
2022/10/16 00:21:56;;;;;;;2.42;1.10;;;;;;;13.03;100.00;95734.13;5003581;28;24448;-73
2022/10/16 00:24:22;;;;;;;3.35;1.30;;;;;;;13.06;100.00;95725.28;5008444;28;24544;-73
2022/10/16 00:26:50;;;;;;;2.53;1.00;;;;;;;13.06;100.00;95733.91;5004263;28;24455;-73
2022/10/16 00:29:17;;;;;;;2.60;1.15;;;;;;;13.05;100.00;95732.25;5000370;28;24441;-73
2022/10/16 00:31:44;;;;;;;1.73;1.10;;;;;;;12.99;100.00;95737.91;4996814;28;24990;-72
2022/10/16 00:34:12;;;;;;;2.40;1.27;;;;;;;13.00;100.00;95749.94;5004735;28;24453;-72
2022/10/16 00:36:38;;;;;;;2.05;1.00;;;;;;;13.05;100.00;95736.59;5011523;28;24439;-72
2022/10/16 00:39:05;;;;;;;2.50;1.23;;;;;;;13.06;100.00;95725.28;4997515;28;24565;-73
2022/10/16 00:41:32;;;;;;;1.55;0.90;;;;;;;13.06;100.00;95727.88;5007628;28;24452;-72
2022/10/16 00:44:00;;;;;;;1.77;1.10;;;;;;;13.05;100.00;95729.66;5006293;28;24470;-72
2022/10/16 00:46:29;;;;;;;1.77;0.98;;;;;;;13.08;100.00;95739.00;5004781;28;24429;-72
2022/10/16 00:49:00;;;;;;;2.08;0.90;;;;;;;13.07;100.00;95743.38;5009590;28;24468;-73
2022/10/16 00:51:32;;;;;;;1.42;0.90;;;;;;;13.04;100.00;95737.56;5005951;28;24986;-74
2022/10/16 00:53:59;;;;;;;2.22;1.20;;;;;;;13.07;100.00;95727.75;5010176;28;24432;-74
2022/10/16 00:56:26;;;;;;;2.33;0.90;;;;;;;13.13;100.00;95743.88;5011155;28;24444;-73
2022/10/16 00:58:53;;;;;;;2.05;1.10;;;;;;;13.11;100.00;95746.56;5004212;28;24985;-72
2022/10/16 01:01:19;;;;;;;1.15;0.75;;;;;;;13.06;100.00;95746.09;5010762;28;24443;-72
2022/10/16 01:03:46;;;;;;;2.67;0.88;;;;;;;13.09;100.00;95743.28;5007981;28;24457;-72
2022/10/16 01:06:23;;;;;;;2.45;1.10;;;;;;;13.09;100.00;95743.28;5002801;28;24440;-72
2022/10/16 01:09:02;;;;;;;1.60;1.00;;;;;;;13.16;100.00;95738.41;5009824;28;24475;-73
2022/10/16 01:11:34;;;;;;;1.90;0.70;;;;;;;13.19;100.00;95748.59;5004156;28;24806;-72
2022/10/16 01:14:06;;;;;;;1.98;0.80;;;;;;;13.20;100.00;95751.09;5003800;28;24441;-73
2022/10/16 01:16:39;;;;;;;3.47;1.08;;;;;;;13.15;100.00;95749.78;5004096;28;24802;-72
2022/10/16 01:19:12;;;;;;;3.00;1.00;;;;;;;13.13;100.00;95749.06;5009628;28;24503;-73
2022/10/16 01:21:43;;;;;;;1.45;1.00;;;;;;;13.13;100.00;95744.69;5010568;28;24869;-72
2022/10/16 01:24:18;;;;;;;1.65;1.00;;;;;;;13.08;100.00;95752.81;5002117;28;24465;-73
2022/10/16 01:27:07;;;;;;;2.47;0.95;;;;;;;13.03;100.00;95761.91;5010083;28;24488;-73
2022/10/16 01:29:39;;;;;;;2.05;0.80;;;;;;;13.02;100.00;95748.06;5006707;28;24443;-73
2022/10/16 01:32:11;;;;;;;1.07;0.70;;;;;;;13.03;100.00;95747.13;5010208;28;24437;-73
2022/10/16 01:34:42;;;;;;;3.55;0.80;;;;;;;13.07;100.00;95742.53;5009701;28;24448;-73
2022/10/16 01:37:15;;;;;;;1.42;0.75;;;;;;;13.09;100.00;95738.06;5002100;28;24464;-73
2022/10/16 01:39:46;;;;;;;3.10;0.80;;;;;;;13.16;100.00;95733.22;4996201;28;24445;-72
2022/10/16 01:42:21;;;;;;;1.85;0.85;;;;;;;13.16;100.00;95734.03;5003410;28;24478;-73
2022/10/16 01:44:50;;;;;;;1.17;0.90;;;;;;;13.17;100.00;95740.09;5009630;28;24463;-73
2022/10/16 01:47:18;;;;;;;1.10;0.82;;;;;;;13.20;100.00;95737.25;5007454;28;24432;-74
2022/10/16 01:49:46;;;;;;;1.15;0.60;;;;;;;13.21;100.00;95742.34;5001148;28;25016;-74
2022/10/16 01:52:18;;;;;;;0.90;0.60;;;;;;;13.14;100.00;95742.91;5006297;28;24444;-73
2022/10/16 01:54:48;;;;;;;2.75;1.08;;;;;;;13.16;100.00;95741.84;5008904;28;24444;-72
2022/10/16 01:57:17;;;;;;;1.13;0.88;;;;;;;13.12;100.00;95739.59;4995486;28;24467;-73
2022/10/16 01:59:47;;;;;;;3.10;1.10;;;;;;;13.06;100.00;95740.88;5000267;28;24441;-72
2022/10/16 02:02:17;;;;;;;3.70;0.75;;;;;;;12.98;100.00;95744.03;5006839;28;24436;-72
2022/10/16 02:04:46;;;;;;;4.35;1.08;;;;;;;13.04;100.00;95747.94;5008764;28;25004;-73
2022/10/16 02:07:13;;;;;;;1.73;0.88;;;;;;;13.07;100.00;95739.94;5006201;28;24440;-72
2022/10/16 02:09:40;;;;;;;2.92;0.90;;;;;;;13.12;100.00;95742.19;5002275;28;24443;-73
2022/10/16 02:12:12;;;;;;;1.42;0.80;;;;;;;13.13;100.00;95736.91;5005690;28;24444;-73
2022/10/16 02:14:40;;;;;;;1.17;0.77;;;;;;;13.15;100.00;95736.78;5000133;28;24444;-73
2022/10/16 02:17:12;;;;;;;1.20;0.90;;;;;;;13.22;100.00;95731.00;4997935;28;25016;-73
2022/10/16 02:19:38;;;;;;;1.17;0.80;;;;;;;13.20;100.00;95732.91;5009386;28;24432;-73
2022/10/16 02:22:08;;;;;;;2.58;1.05;;;;;;;13.21;100.00;95729.34;4998579;28;24436;-73
2022/10/16 02:24:39;;;;;;;1.77;1.00;;;;;;;13.17;100.00;95733.13;5003223;28;24472;-73
2022/10/16 02:27:10;;;;;;;0.90;0.70;;;;;;;13.07;100.00;95730.38;4998033;28;24439;-74
2022/10/16 02:29:44;;;;;;;1.25;0.90;;;;;;;13.04;100.00;95727.16;5009856;28;24432;-73
2022/10/16 02:32:13;;;;;;;1.10;0.90;;;;;;;13.04;100.00;95730.59;5007192;28;24514;-74
2022/10/16 02:34:41;;;;;;;2.15;1.02;;;;;;;12.96;100.00;95743.31;5009127;28;24443;-73
2022/10/16 02:37:10;;;;;;;2.72;1.02;;;;;;;12.94;100.00;95742.63;5008959;28;25036;-73
2022/10/16 02:39:37;;;;;;;2.13;1.10;;;;;;;12.93;100.00;95742.72;5008527;28;24494;-74
2022/10/16 02:42:04;;;;;;;1.30;0.85;;;;;;;12.96;100.00;95755.50;5002679;28;24440;-73
2022/10/16 02:44:30;;;;;;;2.15;1.02;;;;;;;12.93;100.00;95751.34;5003599;28;24457;-73
2022/10/16 02:46:58;;;;;;;2.85;0.80;;;;;;;12.97;100.00;95749.34;5008838;28;24459;-73
2022/10/16 02:49:25;;;;;;;1.92;1.02;;;;;;;12.98;100.00;95745.81;5001464;28;24445;-74
2022/10/16 02:51:51;;;;;;;1.73;0.85;;;;;;;12.99;100.00;95743.09;5006923;28;24432;-74
2022/10/16 02:54:18;;;;;;;1.02;0.88;;;;;;;13.00;100.00;95746.53;5003666;28;24451;-74
2022/10/16 02:56:44;;;;;;;1.52;0.85;;;;;;;13.02;100.00;95744.66;5006983;28;24839;-74
2022/10/16 02:59:11;;;;;;;2.25;1.00;;;;;;;13.08;100.00;95742.41;4999107;28;24444;-72
2022/10/16 03:01:37;;;;;;;1.77;0.80;;;;;;;13.04;100.00;95748.78;5003234;28;24437;-73
2022/10/16 03:04:05;;;;;;;3.00;0.75;;;;;;;13.00;100.00;95749.13;5001462;28;24464;-72
2022/10/16 03:06:32;;;;;;;2.15;0.80;;;;;;;12.93;100.00;95747.91;5006725;28;24449;-73
2022/10/16 03:08:58;;;;;;;2.40;1.20;;;;;;;12.93;100.00;95755.69;5004365;28;24527;-73
2022/10/16 03:11:26;;;;;;;1.88;1.00;;;;;;;12.91;100.00;95755.81;5007325;28;24440;-73
2022/10/16 03:13:52;;;;;;;1.77;0.93;;;;;;;12.91;100.00;95757.59;5005098;28;24544;-73
2022/10/16 03:16:19;;;;;;;1.67;0.80;;;;;;;12.86;100.00;95760.50;5006663;28;24937;-73
2022/10/16 03:18:50;;;;;;;2.10;0.90;;;;;;;12.91;100.00;95762.81;5004253;28;24464;-73
2022/10/16 03:21:17;;;;;;;5.82;0.95;;;;;;;12.94;100.00;95760.81;4999215;28;24432;-72
2022/10/16 03:23:44;;;;;;;2.97;0.80;;;;;;;12.89;100.00;95759.47;5004563;28;24467;-73
2022/10/16 03:26:10;;;;;;;2.80;0.70;;;;;;;12.87;100.00;95756.13;5006084;28;24794;-72
2022/10/16 03:28:37;;;;;;;1.60;0.93;;;;;;;12.84;100.00;95763.22;5008816;28;24443;-73
2022/10/16 03:31:03;;;;;;;4.63;0.90;;;;;;;12.84;100.00;95763.22;5004730;28;24448;-72
2022/10/16 03:33:30;;;;;;;1.15;0.80;;;;;;;12.87;100.00;95766.53;5006418;28;25016;-73
2022/10/16 03:35:56;;;;;;;1.92;0.82;;;;;;;12.89;100.00;95768.09;5007198;28;24436;-73
2022/10/16 03:38:24;;;;;;;2.70;1.00;;;;;;;12.96;100.00;95768.50;5004750;28;25013;-73
2022/10/16 03:40:51;;;;;;;5.40;1.10;;;;;;;12.92;100.00;95767.88;5004046;28;24443;-72
2022/10/16 03:43:17;;;;;;;1.40;0.98;;;;;;;12.90;100.00;95766.31;5005373;28;24436;-73
2022/10/16 03:45:44;;;;;;;1.80;0.90;;;;;;;12.93;100.00;95761.72;5007304;28;24874;-73
2022/10/16 03:48:10;;;;;;;2.72;1.05;;;;;;;12.94;100.00;95762.56;5005638;28;24803;-73
2022/10/16 03:50:37;;;;;;;2.10;0.80;;;;;;;12.88;100.00;95763.84;5009304;28;24447;-73
2022/10/16 03:53:04;;;;;;;1.88;1.10;;;;;;;12.88;100.00;95763.00;5009383;28;24803;-73
2022/10/16 03:55:32;;;;;;;3.37;0.93;;;;;;;12.82;100.00;95761.66;5011311;28;24435;-73
2022/10/16 03:57:58;;;;;;;2.65;0.90;;;;;;;12.78;100.00;95762.84;5007051;28;24794;-73
2022/10/16 04:00:25;;;;;;;1.27;1.00;;;;;;;12.78;100.00;95760.22;5001297;28;24441;-73
2022/10/16 04:02:51;;;;;;;2.00;1.13;;;;;;;12.83;100.00;95768.56;5010375;28;24443;-73
2022/10/16 04:05:18;;;;;;;1.42;1.10;;;;;;;12.81;100.00;95760.03;5010314;28;25016;-73
2022/10/16 04:07:44;;;;;;;2.38;0.90;;;;;;;12.78;100.00;95762.84;5006563;28;24444;-73
2022/10/16 04:10:11;;;;;;;1.77;0.82;;;;;;;12.80;100.00;95756.59;5011676;28;24439;-72
2022/10/16 04:12:38;;;;;;;1.88;1.10;;;;;;;12.89;100.00;95751.66;4999128;28;24433;-73
2022/10/16 04:15:05;;;;;;;3.95;1.33;;;;;;;12.95;100.00;95746.03;5008496;28;24439;-73
2022/10/16 04:17:32;;;;;;;3.20;1.40;;;;;;;12.88;100.00;95753.44;5006721;28;24443;-72
2022/10/16 04:19:58;;;;;;;1.33;0.95;;;;;;;12.89;100.00;95755.09;5009580;28;24993;-72
2022/10/16 04:22:25;;;;;;;2.28;1.15;;;;;;;12.86;100.00;95760.50;5007184;28;24865;-73
2022/10/16 04:24:51;;;;;;;3.25;0.98;;;;;;;12.79;100.00;95764.47;5031602;22;24810;-75
2022/10/16 04:27:18;;;;;;;3.58;1.00;;;;;;;12.76;100.00;95770.75;5027326;28;24434;-74
2022/10/16 04:29:46;;;;;;;1.63;0.95;;;;;;;12.76;100.00;95762.97;5029031;28;24436;-75
2022/10/16 04:32:12;;;;;;;1.50;0.88;;;;;;;12.74;100.00;95764.81;5020653;28;24455;-75
2022/10/16 04:34:40;;;;;;;0.95;0.77;;;;;;;12.75;100.00;95776.03;5015970;28;24447;-74
2022/10/16 04:37:07;;;;;;;0.93;0.83;;;;;;;12.75;100.00;95779.47;5020423;28;24784;-75
2022/10/16 04:39:34;;;;;;;1.20;1.00;;;;;;;12.72;100.00;95776.25;5029765;28;24432;-74
2022/10/16 04:42:00;;;;;;;2.10;0.90;;;;;;;12.75;100.00;95789.03;5022755;28;24447;-74
2022/10/16 04:44:27;;;;;;;1.80;0.93;;;;;;;12.70;100.00;95797.16;5022692;28;24505;-74
2022/10/16 04:46:55;;;;;;;0.80;0.67;;;;;;;12.69;100.00;95794.69;5029886;28;24443;-75
2022/10/16 04:49:21;;;;;;;2.00;1.00;;;;;;;12.65;100.00;95804.47;5023630;28;24432;-75
2022/10/16 04:51:48;;;;;;;2.23;1.10;;;;;;;12.65;100.00;95807.06;5020040;28;24452;-75
2022/10/16 04:54:14;;;;;;;4.68;1.00;;;;;;;12.69;100.00;95810.28;5025049;28;24443;-74
2022/10/16 04:56:46;;;;;;;1.90;0.88;;;;;;;12.71;100.00;95808.38;5028796;28;24447;-74
2022/10/16 04:59:13;;;;;;;2.53;0.70;;;;;;;12.73;100.00;95804.75;5025624;28;24486;-74
2022/10/16 05:01:40;;;;;;;1.70;0.90;;;;;;;12.74;100.00;95795.19;5023154;28;24537;-74
2022/10/16 05:04:07;;;;;;;2.45;1.05;;;;;;;12.75;100.00;95789.88;5018033;28;24551;-74
2022/10/16 05:06:34;;;;;;;6.72;0.98;;;;;;;12.80;100.00;95786.97;5024010;28;24662;-75
2022/10/16 05:09:01;;;;;;;1.80;1.27;;;;;;;12.88;100.00;95778.59;5029768;28;24439;-74
2022/10/16 05:11:27;;;;;;;7.15;1.38;;;;;;;12.79;100.00;95778.34;5023687;28;24442;-74
2022/10/16 05:13:54;;;;;;;2.67;1.10;;;;;;;12.75;100.00;95787.25;5026553;28;24439;-74
2022/10/16 05:16:20;;;;;;;1.30;0.98;;;;;;;12.70;100.00;95784.19;5022465;28;24432;-75
2022/10/16 05:18:47;;;;;;;2.17;0.95;;;;;;;12.64;100.00;95796.75;5030708;28;24463;-74
2022/10/16 05:21:15;;;;;;;4.28;1.10;;;;;;;12.57;100.00;95797.22;5027830;28;24432;-75
2022/10/16 05:23:41;;;;;;;5.37;1.30;;;;;;;12.57;100.00;95804.19;5023229;28;24826;-75
2022/10/16 05:26:08;;;;;;;2.10;1.13;;;;;;;12.60;100.00;95801.34;5031547;28;24438;-75
2022/10/16 05:28:35;;;;;;;0.75;0.75;;;;;;;12.61;100.00;95803.03;5025917;28;25000;-74
2022/10/16 05:31:05;;;;;;;2.55;1.20;;;;;;;12.56;100.00;95810.28;5023779;28;24446;-74
2022/10/16 05:33:32;;;;;;;1.30;0.80;;;;;;;12.48;100.00;95808.22;5022281;28;24448;-74
2022/10/16 05:36:02;;;;;;;2.20;1.00;;;;;;;12.50;100.00;95806.38;5020663;28;25348;-75
2022/10/16 05:38:30;;;;;;;1.20;0.98;;;;;;;12.48;100.00;95810.81;5028289;28;25126;-74
2022/10/16 05:40:57;;;;;;;2.30;1.08;;;;;;;12.46;100.00;95810.13;5023562;28;24447;-75
2022/10/16 05:43:24;;;;;;;2.53;1.20;;;;;;;12.42;100.00;95811.28;5027841;28;24512;-74
2022/10/16 05:45:57;;;;;;;2.75;1.40;;;;;;;12.44;100.00;95819.78;5030776;28;24452;-74
2022/10/16 05:48:24;;;;;;;2.95;1.20;;;;;;;12.43;100.00;95819.91;5032998;28;24434;-73
2022/10/16 05:50:58;;;;;;;1.23;1.00;;;;;;;12.49;100.00;95829.84;5024672;28;24439;-74
2022/10/16 05:53:25;;;;;;;2.63;1.03;;;;;;;12.52;100.00;95834.81;5027556;28;24566;-74
2022/10/16 05:55:54;;;;;;;1.83;1.40;;;;;;;12.53;100.00;95837.34;5016981;28;24667;-74
2022/10/16 05:58:21;;;;;;;2.30;0.97;;;;;;;12.53;100.00;95834.75;5025858;28;24439;-75
2022/10/16 06:00:54;;;;;;;1.10;1.00;;;;;;;12.53;100.00;95832.16;5025128;28;24447;-73
2022/10/16 06:03:20;;;;;;;1.00;0.82;;;;;;;12.55;100.00;95840.63;5017932;28;25104;-74
2022/10/16 06:05:47;;;;;;;1.77;1.00;;;;;;;12.68;100.00;95839.78;5028163;28;24455;-73
2022/10/16 06:08:13;;;;;;;2.38;0.98;;;;;;;12.63;100.00;95842.72;5028107;28;24798;-74
2022/10/16 06:10:40;;;;;;;1.20;0.98;;;;;;;12.63;100.00;95840.09;5018451;28;24447;-73
2022/10/16 06:13:07;;;;;;;1.98;1.10;;;;;;;12.70;100.00;95843.13;5019838;28;24520;-73
2022/10/16 06:15:34;;;;;;;2.67;1.38;;;;;;;12.71;100.00;95832.59;5023020;28;24443;-74
2022/10/16 06:18:00;;;;;;;3.30;1.83;;;;;;;12.74;100.00;95837.59;5026275;28;24439;-74
2022/10/16 06:20:27;;;;;;;4.47;1.73;;;;;;;12.73;100.00;95835.94;5014416;28;25011;-75
2022/10/16 06:22:53;;;;;;;5.32;1.58;;;;;;;12.69;100.00;95842.28;5021329;28;24439;-74
2022/10/16 06:25:20;;;;;;;3.27;1.80;;;;;;;12.68;100.00;95843.22;5022603;28;24464;-74
2022/10/16 06:27:46;;;;;;;2.30;1.20;;;;;;;12.67;100.00;95841.56;5026236;28;24432;-73
2022/10/16 06:30:14;;;;;;;1.65;1.20;;;;;;;12.65;100.00;95853.00;5028262;28;24444;-74
2022/10/16 06:32:41;;;;;;;4.10;1.30;;;;;;;12.64;100.00;95859.94;5014500;28;24444;-71
2022/10/16 06:35:08;;;;;;;1.52;0.98;;;;;;;12.67;100.00;95864.09;5020808;28;24809;-74
2022/10/16 06:37:34;;;;;;;4.90;1.48;;;;;;;12.70;100.00;95859.53;5023040;28;24808;-75
2022/10/16 06:40:04;;;;;;;1.70;1.10;;;;;;;12.76;100.00;95859.13;5015956;28;24444;-74
2022/10/16 06:42:30;;;;;;;1.33;0.88;;;;;;;12.83;100.00;95857.75;5017054;28;24535;-75
2022/10/16 06:44:57;;;;;;;4.40;1.10;;;;;;;12.87;100.00;95857.50;5025520;28;24456;-75
2022/10/16 06:47:24;;;;;;;1.77;1.23;;;;;;;12.84;100.00;95872.41;5024659;28;24434;-74
2022/10/16 06:49:51;;;;;;;1.27;0.90;;;;;;;12.79;100.00;95871.03;5026961;28;24432;-75
2022/10/16 06:52:18;;;;;;;4.78;1.10;;;;;;;12.76;100.00;95873.88;5030510;28;24439;-74
2022/10/16 06:54:44;;;;;;;3.97;1.17;;;;;;;12.78;100.00;95879.78;5017128;28;24806;-71
2022/10/16 06:57:11;;;;;;;1.23;0.93;;;;;;;12.85;100.00;95875.81;5026899;28;24455;-74
2022/10/16 06:59:37;;;;;;;1.88;1.10;;;;;;;12.91;100.00;95879.78;5029107;28;24438;-74
2022/10/16 07:02:04;;;;;;;1.83;1.20;;;;;;;12.95;100.00;95894.22;5024372;28;24455;-73
2022/10/16 07:04:32;;;;;;;1.77;1.00;;;;;;;12.96;100.00;95901.06;5030060;28;24833;-73
2022/10/16 07:06:58;;;;;;;2.00;1.00;;;;;;;12.89;100.00;95905.84;5027128;28;24530;-74
2022/10/16 07:09:25;;;;;;;1.60;1.20;;;;;;;12.91;100.00;95916.16;5029773;28;25008;-74
2022/10/16 07:11:51;;;;;;;2.97;1.00;;;;;;;12.87;100.00;95922.50;5027355;28;24450;-74
2022/10/16 07:14:20;;;;;;;2.53;1.20;;;;;;;12.86;100.00;95920.84;5018533;28;24810;-73
2022/10/16 07:16:48;;;;;;;1.75;1.00;;;;;;;12.89;100.00;95925.81;5029346;28;24438;-74
2022/10/16 07:19:17;;;;;;;3.55;1.20;;;;;;;12.93;100.00;95919.47;5026419;28;25027;-74
2022/10/16 07:21:46;;;;;;;2.80;1.00;;;;;;;13.01;100.00;95918.00;5026948;28;24486;-73
2022/10/16 07:24:14;;;;;;;1.70;1.20;;;;;;;13.12;100.00;95917.25;5025331;28;24440;-73
2022/10/16 07:26:42;;;;;;;3.38;1.48;;;;;;;13.18;100.00;95922.03;5025524;28;24443;-73
2022/10/16 07:29:13;;;;;;;2.55;1.25;;;;;;;13.20;100.00;95922.75;5023309;28;24531;-73
2022/10/16 07:31:40;;;;;;;1.63;1.23;;;;;;;13.20;100.00;95929.69;5029713;28;24535;-73
2022/10/16 07:34:07;;;;;;;2.60;1.20;;;;;;;13.24;100.00;95931.19;5017358;28;24443;-73
2022/10/16 07:36:33;;;;;;;7.72;1.27;;;;;;;13.23;100.00;95935.53;5026347;28;24443;-74
2022/10/16 07:39:01;;;;;;;4.15;1.10;;;;;;;13.29;100.00;95942.09;5027736;28;24556;-73
2022/10/16 07:41:28;;;;;;;1.92;1.08;;;;;;;13.37;100.00;95944.16;5030648;28;24431;-73
2022/10/16 07:43:59;;;;;;;2.50;1.20;;;;;;;13.40;100.00;95942.16;5022339;28;24444;-73
2022/10/16 07:46:27;;;;;;;1.38;1.00;;;;;;;13.46;100.00;95941.75;5023873;28;24980;-73
2022/10/16 07:48:53;;;;;;;2.22;1.33;;;;;;;13.57;100.00;95946.16;5029458;28;24432;-74
2022/10/16 07:51:23;;;;;;;7.18;1.23;;;;;;;13.61;100.00;95950.22;5028221;28;24443;-73
2022/10/16 07:53:50;;;;;;;5.05;1.20;;;;;;;13.72;100.00;95949.41;5025589;28;24439;-73
2022/10/16 07:56:19;;;;;;;2.63;1.20;;;;;;;13.90;100.00;95945.47;5021361;28;24825;-73
2022/10/16 07:58:46;;;;;;;1.80;1.08;;;;;;;14.02;100.00;95943.78;5026015;28;24446;-73
2022/10/16 08:01:15;;;;;;;3.50;1.13;;;;;;;14.08;100.00;95950.28;5027807;28;24443;-73
2022/10/16 08:03:43;;;;;;;4.15;1.52;;;;;;;14.12;100.00;95949.13;5029462;28;24450;-74
2022/10/16 08:06:09;;;;;;;2.55;1.40;;;;;;;14.16;100.00;95956.56;5024521;28;25027;-73
2022/10/16 08:08:36;;;;;;;4.65;1.33;;;;;;;14.10;100.00;95962.25;5028918;28;24432;-74
2022/10/16 08:11:03;;;;;;;3.13;1.58;;;;;;;14.17;100.00;95965.25;5031309;28;24439;-73
2022/10/16 08:13:32;;;;;;;2.73;1.20;;;;;;;14.15;100.00;95965.34;5026943;28;24469;-75
2022/10/16 08:15:59;;;;;;;2.90;1.30;;;;;;;14.15;100.00;95970.56;5025215;28;24428;-75
2022/10/16 08:18:25;;;;;;;2.92;1.48;;;;;;;14.19;100.00;95971.16;5028825;28;24435;-74
2022/10/16 08:20:56;;;;;;;2.13;1.30;;;;;;;14.25;100.00;95974.16;5027393;28;24805;-75
2022/10/16 08:23:23;;;;;;;2.77;1.30;;;;;;;14.38;100.00;95966.25;5022807;28;24443;-75
2022/10/16 08:25:49;;;;;;;2.70;1.45;;;;;;;14.41;100.00;95962.59;5018383;28;24452;-75
2022/10/16 08:28:16;;;;;;;3.72;1.80;;;;;;;14.45;100.00;95956.19;5027315;28;24801;-76
2022/10/16 08:30:44;;;;;;;5.38;1.88;;;;;;;14.46;100.00;95958.69;5030079;28;24497;-75
2022/10/16 08:33:11;;;;;;;3.45;1.67;;;;;;;14.53;100.00;95969.50;5024227;28;24442;-76
2022/10/16 08:35:37;;;;;;;3.33;1.67;;;;;;;14.56;100.00;95978.88;5016438;28;24435;-75
2022/10/16 08:38:04;;;;;;;3.45;1.77;;;;;;;14.54;100.00;95981.59;5026620;28;24435;-73
2022/10/16 08:40:33;;;;;;;3.25;1.35;;;;;;;14.61;100.00;95987.16;5025565;28;24439;-75
2022/10/16 08:43:16;;;;;;;4.55;1.48;;;;;;;14.64;100.00;95994.75;5020534;28;25011;-75
2022/10/16 08:46:03;;;;;;;3.17;1.58;;;;;;;14.62;100.00;95988.84;5017512;28;24456;-75
2022/10/16 08:48:41;;;;;;;2.40;1.53;;;;;;;14.62;100.00;95992.28;5027425;28;24447;-75
2022/10/16 08:51:11;;;;;;;3.40;1.50;;;;;;;14.65;100.00;95993.84;5026522;28;24499;-75
2022/10/16 08:53:43;;;;;;;3.90;1.50;;;;;;;14.93;100.00;95989.94;5025624;28;24432;-75
2022/10/16 08:56:10;;;;;;;2.20;1.08;;;;;;;15.15;100.00;95987.34;5023147;28;24436;-74
2022/10/16 08:58:37;;;;;;;2.28;1.08;;;;;;;15.18;100.00;95989.72;5029479;28;24442;-75
2022/10/16 09:01:11;;;;;;;2.40;1.40;;;;;;;15.25;100.00;95993.50;5018512;28;24447;-75
2022/10/16 09:03:53;;;;;;;3.53;1.20;;;;;;;15.37;100.00;95998.72;5021073;28;24443;-75
2022/10/16 09:06:44;;;;;;;2.65;1.10;;;;;;;15.74;100.00;95999.28;5013068;28;24830;-75
2022/10/16 09:09:37;;;;;;;3.55;1.20;;;;;;;15.91;100.00;95998.78;5027032;28;25095;-75
2022/10/16 09:12:13;;;;;;;2.40;1.00;;;;;;;15.95;100.00;96008.03;5028774;28;24550;-75
2022/10/16 09:15:02;;;;;;;3.08;1.20;;;;;;;15.94;100.00;96002.91;5017192;28;24446;-75
2022/10/16 09:17:42;;;;;;;5.22;1.23;;;;;;;15.95;100.00;96001.97;5027599;28;24505;-74
2022/10/16 09:20:33;;;;;;;2.97;1.15;;;;;;;15.92;100.00;96002.22;5019286;28;24432;-74
2022/10/16 09:23:13;;;;;;;3.50;1.20;;;;;;;15.91;100.00;96011.00;5022981;28;24551;-74
2022/10/16 09:25:40;;;;;;;1.85;1.00;;;;;;;16.01;100.00;96006.69;5024288;28;24829;-75
2022/10/16 09:28:09;;;;;;;3.15;1.15;;;;;;;16.20;100.00;96017.31;5027483;28;24798;-75
2022/10/16 09:30:35;;;;;;;2.15;1.33;;;;;;;16.32;100.00;96017.28;5023281;28;24436;-75
2022/10/16 09:33:05;;;;;;;2.00;1.00;;;;;;;16.57;100.00;96019.50;5024348;28;24440;-75
2022/10/16 09:35:34;;;;;;;2.30;1.13;;;;;;;16.85;100.00;96019.88;5020774;28;24439;-75
2022/10/16 09:38:00;;;;;;;1.50;1.20;;;;;;;17.33;100.00;96024.53;5022002;28;24432;-74
2022/10/16 09:40:31;;;;;;;1.88;1.15;;;;;;;17.43;100.00;96028.03;5022979;28;24432;-75
2022/10/16 09:43:04;;;;;;;1.93;1.03;;;;;;;17.32;100.00;96028.13;5029511;28;25003;-75
2022/10/16 09:45:30;;;;;;;3.67;1.42;;;;;;;17.54;100.00;96035.78;5021955;28;24798;-74
2022/10/16 09:47:57;;;;;;;3.22;1.27;;;;;;;17.57;100.00;96021.56;5023261;28;24791;-75
2022/10/16 09:50:27;;;;;;;3.47;1.30;;;;;;;17.70;100.00;96037.88;5025583;28;24447;-75
2022/10/16 09:53:05;;;;;;;5.32;2.67;;;;;;;17.99;100.00;96037.16;5024788;28;24444;-75
2022/10/16 09:55:32;;;;;;;1.92;1.40;;;;;;;18.32;100.00;96043.84;5018847;28;24810;-75
2022/10/16 09:57:59;;;;;;;4.65;1.60;;;;;;;18.84;100.00;96039.97;5020309;28;24467;-75
2022/10/16 10:00:26;;;;;;;2.77;1.50;;;;;;;19.03;100.00;96033.84;5030053;28;24495;-74
2022/10/16 10:02:55;;;;;;;2.67;1.58;;;;;;;18.94;100.00;96034.69;5023136;28;24437;-74
2022/10/16 10:05:25;;;;;;;4.32;1.67;;;;;;;19.09;100.00;96035.88;5027493;28;24447;-75
2022/10/16 10:07:57;;;;;;;5.73;1.00;;;;;;;19.00;100.00;96036.75;5025545;28;24494;-74
2022/10/16 10:10:26;;;;;;;3.33;1.10;;;;;;;18.96;100.00;96045.88;5021739;28;24440;-74
2022/10/16 10:12:53;;;;;;;5.30;1.30;;;;;;;18.97;100.00;96044.06;5022024;28;24498;-74
2022/10/16 10:15:21;;;;;;;3.00;1.50;;;;;;;18.82;100.00;96041.06;5023936;28;25021;-74
2022/10/16 10:17:50;;;;;;;2.60;1.23;;;;;;;18.77;100.00;96043.28;5027510;28;24531;-74
2022/10/16 10:20:25;;;;;;;5.65;1.80;;;;;;;18.73;100.00;96049.78;5027206;28;24432;-74
2022/10/16 10:22:52;;;;;;;1.85;1.35;;;;;;;18.86;100.00;96056.38;5023800;28;24799;-74
2022/10/16 10:25:39;;;;;;;2.85;1.25;;;;;;;19.04;100.00;96053.03;5024568;28;24447;-74
2022/10/16 10:28:37;;;;;;;4.57;1.17;;;;;;;19.27;100.00;96043.84;5025885;28;24440;-75
2022/10/16 10:31:12;;;;;;;1.60;0.97;;;;;;;19.50;100.00;96046.94;5024876;28;24432;-73
2022/10/16 10:33:46;;;;;;;4.97;1.70;;;;;;;19.57;100.00;96042.75;5018628;28;24462;-75
2022/10/16 10:36:28;;;;;;;1.70;0.90;;;;;;;19.78;100.00;96037.31;5022526;28;24428;-74
2022/10/16 10:38:59;;;;;;;3.03;2.05;;;;;;;19.75;100.00;96042.84;5023833;28;24476;-74
2022/10/16 10:41:52;;;;;;;7.50;1.40;;;;;;;19.62;100.00;96036.28;5021545;28;24436;-75
2022/10/16 10:44:30;;;;;;;3.10;1.38;;;;;;;19.64;100.00;96035.16;5025108;28;24447;-75
2022/10/16 10:47:00;;;;;;;1.48;0.88;;;;;;;20.01;100.00;96039.53;5018714;28;24558;-75
2022/10/16 10:49:42;;;;;;;2.45;1.17;;;;;;;20.45;100.00;96051.00;5019544;28;24448;-75
2022/10/16 10:52:35;;;;;;;2.53;1.10;;;;;;;20.22;100.00;96040.09;5025761;28;24806;-75
2022/10/16 10:55:11;;;;;;;2.20;1.20;;;;;;;20.06;100.00;96045.19;5025700;28;24443;-74
2022/10/16 10:57:44;;;;;;;2.88;0.98;;;;;;;20.13;100.00;96046.22;5022384;28;24440;-74
2022/10/16 11:00:21;;;;;;;1.90;1.00;;;;;;;20.13;100.00;96045.41;5021570;28;24434;-74
2022/10/16 11:02:56;;;;;;;2.38;1.10;;;;;;;20.10;100.00;96051.81;5017661;28;24432;-74
2022/10/16 11:05:41;;;;;;;2.05;1.10;;;;;;;19.91;100.00;96052.75;5018559;28;24474;-74
2022/10/16 11:08:15;;;;;;;4.70;1.15;;;;;;;19.80;100.00;96050.28;5023124;28;24998;-74
2022/10/16 11:10:48;;;;;;;2.95;1.40;;;;;;;19.79;100.00;96046.03;5014959;28;24432;-75
2022/10/16 11:13:25;;;;;;;2.45;0.90;;;;;;;19.75;100.00;96052.53;5022858;28;24447;-74
2022/10/16 11:15:57;;;;;;;3.45;1.10;;;;;;;19.68;100.00;96051.47;5020255;28;24440;-75
2022/10/16 11:18:31;;;;;;;2.70;1.08;;;;;;;19.73;100.00;96060.59;5025272;28;24440;-74
2022/10/16 11:21:03;;;;;;;1.90;0.90;;;;;;;19.72;100.00;96053.66;5029259;28;24478;-77
2022/10/16 11:23:38;;;;;;;3.67;1.30;;;;;;;19.75;100.00;96053.38;5027639;28;24455;-75
2022/10/16 11:26:13;;;;;;;2.08;1.10;;;;;;;19.76;100.00;96046.31;5020810;28;24471;-74
2022/10/16 11:28:46;;;;;;;2.95;1.17;;;;;;;19.83;100.00;96042.94;5019727;28;24428;-74
2022/10/16 11:31:20;;;;;;;3.35;1.25;;;;;;;19.81;100.00;96047.53;5022381;28;24451;-75
2022/10/16 11:33:52;;;;;;;4.20;1.17;;;;;;;19.85;100.00;96042.00;5020262;28;25069;-75
2022/10/16 11:36:24;;;;;;;1.40;0.80;;;;;;;19.86;100.00;96044.47;5023452;28;24447;-76